createdAt,value
2017-09-03T00:00:09.070Z,81.10
2017-09-03T00:02:44.056Z,81.25
2017-09-03T00:05:18.599Z,81.20
2017-09-03T00:07:53.274Z,81.27
2017-09-03T00:10:27.910Z,81.54
2017-09-03T00:13:02.735Z,81.41
2017-09-03T00:15:37.743Z,81.08
2017-09-03T00:18:12.290Z,80.71
2017-09-03T00:20:47.108Z,80.35
2017-09-03T00:23:21.760Z,80.33
2017-09-03T00:25:56.574Z,80.66
2017-09-03T00:28:31.256Z,80.86
2017-09-03T00:31:06.043Z,80.99
2017-09-03T00:33:41.036Z,81.16
2017-09-03T00:36:16.675Z,81.27
2017-09-03T00:38:51.354Z,81.35
2017-09-03T00:41:26.070Z,81.55
2017-09-03T00:44:01.006Z,81.93
2017-09-03T00:46:35.831Z,82.37
2017-09-03T00:49:10.484Z,82.40
2017-09-03T00:51:44.819Z,82.10
2017-09-03T00:54:19.640Z,81.91
2017-09-03T00:56:54.271Z,81.79
2017-09-03T00:59:28.974Z,82.05
2017-09-03T01:02:03.953Z,83.34
2017-09-03T01:04:38.601Z,85.35
2017-09-03T01:07:13.186Z,84.85
2017-09-03T01:09:48.304Z,84.48
2017-09-03T01:12:22.944Z,84.05
2017-09-03T01:14:57.954Z,83.85
2017-09-03T01:17:32.590Z,83.42
2017-09-03T01:20:07.288Z,83.03
2017-09-03T01:22:42.350Z,83.17
2017-09-03T01:25:17.199Z,83.40
2017-09-03T01:27:51.912Z,83.27
2017-09-03T01:30:26.629Z,83.17
2017-09-03T01:33:01.508Z,82.95
2017-09-03T01:35:36.348Z,82.77
2017-09-03T01:38:11.050Z,82.57
2017-09-03T01:40:45.580Z,82.42
2017-09-03T01:43:21.250Z,82.23
2017-09-03T01:45:55.952Z,82.05
2017-09-03T01:48:31.592Z,82.34
2017-09-03T01:51:06.063Z,82.79
2017-09-03T01:53:40.943Z,83.09
2017-09-03T01:56:15.708Z,83.22
2017-09-03T01:58:50.451Z,83.50
2017-09-03T02:01:24.999Z,83.87
2017-09-03T02:03:59.711Z,83.95
2017-09-03T02:06:34.483Z,84.40
2017-09-03T02:09:09.224Z,84.29
2017-09-03T02:11:43.959Z,84.45
2017-09-03T02:14:18.687Z,84.33
2017-09-03T02:16:53.427Z,84.44
2017-09-03T02:19:29.131Z,84.42
2017-09-03T02:22:04.039Z,84.50
2017-09-03T02:24:39.026Z,84.36
2017-09-03T02:27:13.849Z,84.35
2017-09-03T02:29:48.567Z,84.95
2017-09-03T02:32:23.420Z,87.38
2017-09-03T02:34:58.199Z,87.50
2017-09-03T02:37:32.868Z,87.40
2017-09-03T02:40:07.527Z,86.87
2017-09-03T02:42:42.480Z,86.18
2017-09-03T02:45:17.259Z,86.19
2017-09-03T02:47:51.962Z,86.33
2017-09-03T02:50:26.691Z,86.34
2017-09-03T02:53:01.571Z,86.22
2017-09-03T02:55:36.286Z,85.60
2017-09-03T02:58:11.104Z,85.45
2017-09-03T03:00:45.787Z,85.23
2017-09-03T03:03:20.427Z,84.91
2017-09-03T03:05:55.206Z,84.59
2017-09-03T03:08:30.030Z,84.52
2017-09-03T03:11:04.720Z,84.53
2017-09-03T03:13:40.395Z,84.61
2017-09-03T03:16:15.928Z,85.17
2017-09-03T03:18:50.771Z,85.64
2017-09-03T03:21:25.602Z,85.61
2017-09-03T03:24:00.951Z,85.23
2017-09-03T03:26:35.815Z,84.81
2017-09-03T03:29:10.649Z,84.38
2017-09-03T03:31:45.849Z,84.49
2017-09-03T03:34:20.690Z,84.64
2017-09-03T03:36:55.507Z,85.14
2017-09-03T03:39:30.118Z,85.36
2017-09-03T03:42:05.134Z,85.55
2017-09-03T03:44:39.923Z,85.65
2017-09-03T03:47:14.948Z,86.48
2017-09-03T03:49:49.820Z,86.80
2017-09-03T03:52:24.800Z,86.68
2017-09-03T03:54:59.195Z,86.21
2017-09-03T03:57:34.428Z,85.99
2017-09-03T04:00:09.228Z,86.29
2017-09-03T04:02:44.136Z,86.75
2017-09-03T04:05:18.655Z,86.91
2017-09-03T04:07:52.942Z,86.92
2017-09-03T04:10:27.948Z,86.81
2017-09-03T04:13:02.832Z,87.03
2017-09-03T04:15:37.579Z,87.13
2017-09-03T04:18:12.499Z,86.79
2017-09-03T04:20:47.326Z,86.39
2017-09-03T04:23:22.431Z,86.35
2017-09-03T04:25:57.039Z,86.35
2017-09-03T04:28:31.819Z,86.29
2017-09-03T04:31:06.763Z,86.13
2017-09-03T04:33:41.377Z,85.83
2017-09-03T04:36:16.119Z,85.84
2017-09-03T04:38:50.880Z,85.97
2017-09-03T04:41:25.767Z,86.10
2017-09-03T04:44:00.663Z,86.17
2017-09-03T04:46:35.459Z,86.32
2017-09-03T04:49:10.290Z,86.56
2017-09-03T04:51:45.139Z,86.65
2017-09-03T04:54:19.966Z,86.39
2017-09-03T04:56:54.804Z,86.05
2017-09-03T04:59:29.775Z,85.81
2017-09-03T05:02:05.411Z,85.62
2017-09-03T05:04:40.335Z,85.46
2017-09-03T05:07:15.243Z,85.37
2017-09-03T05:09:49.939Z,85.34
2017-09-03T05:12:24.668Z,85.26
2017-09-03T05:14:59.302Z,85.75
2017-09-03T05:17:34.096Z,86.05
2017-09-03T05:20:08.919Z,86.34
2017-09-03T05:22:43.902Z,86.42
2017-09-03T05:25:18.737Z,86.41
2017-09-03T05:27:53.667Z,86.45
2017-09-03T05:30:28.395Z,86.46
2017-09-03T05:33:03.226Z,86.21
2017-09-03T05:35:38.188Z,86.19
2017-09-03T05:38:12.934Z,86.58
2017-09-03T05:40:47.703Z,87.15
2017-09-03T05:43:22.455Z,86.97
2017-09-03T05:45:57.267Z,86.74
2017-09-03T05:48:32.411Z,86.52
2017-09-03T05:51:07.448Z,86.44
2017-09-03T05:53:42.700Z,86.71
2017-09-03T05:56:17.376Z,86.36
2017-09-03T05:58:52.337Z,85.94
2017-09-03T06:01:27.287Z,85.78
2017-09-03T06:04:01.945Z,85.65
2017-09-03T06:06:36.736Z,85.72
2017-09-03T06:09:11.968Z,85.71
2017-09-03T06:11:46.650Z,85.46
2017-09-03T06:14:21.526Z,85.31
2017-09-03T06:16:56.335Z,84.91
2017-09-03T06:19:31.244Z,84.45
2017-09-03T06:22:05.976Z,84.38
2017-09-03T06:24:40.587Z,84.37
2017-09-03T06:27:15.218Z,84.50
2017-09-03T06:29:49.965Z,84.54
2017-09-03T06:32:25.110Z,84.46
2017-09-03T06:34:59.670Z,84.48
2017-09-03T06:37:34.454Z,84.67
2017-09-03T06:40:09.267Z,84.82
2017-09-03T06:42:44.167Z,84.50
2017-09-03T06:45:19.267Z,84.20
2017-09-03T06:47:54.051Z,84.05
2017-09-03T06:50:28.824Z,83.74
2017-09-03T06:53:03.426Z,82.96
2017-09-03T06:55:38.355Z,82.59
2017-09-03T06:58:13.313Z,82.34
2017-09-03T07:00:48.272Z,82.41
2017-09-03T07:03:23.067Z,82.25
2017-09-03T07:05:57.976Z,81.91
2017-09-03T07:08:32.875Z,81.77
2017-09-03T07:11:07.722Z,81.20
2017-09-03T07:13:42.545Z,80.72
2017-09-03T07:16:17.507Z,80.29
2017-09-03T07:18:52.444Z,79.91
2017-09-03T07:21:27.467Z,79.23
2017-09-03T07:24:02.315Z,78.63
2017-09-03T07:26:37.371Z,78.07
2017-09-03T07:29:12.279Z,77.08
2017-09-03T07:31:47.132Z,76.62
2017-09-03T07:34:21.939Z,76.12
2017-09-03T07:36:56.667Z,75.25
2017-09-03T07:39:31.591Z,75.11
2017-09-03T07:42:07.004Z,74.50
2017-09-03T07:44:41.990Z,74.58
2017-09-03T07:47:16.594Z,74.04
2017-09-03T07:49:51.326Z,73.12
2017-09-03T07:52:26.051Z,73.13
2017-09-03T07:55:00.786Z,73.34
2017-09-03T07:57:35.271Z,72.51
2017-09-03T08:00:10.003Z,71.21
2017-09-03T08:02:45.062Z,70.10
2017-09-03T08:05:19.850Z,70.13
2017-09-03T08:07:54.468Z,69.85
2017-09-03T08:10:29.358Z,70.14
2017-09-03T08:13:04.439Z,69.80
2017-09-03T08:15:39.582Z,67.85
2017-09-03T08:18:14.019Z,65.98
2017-09-03T08:20:49.205Z,65.20
2017-09-03T08:23:24.047Z,64.35
2017-09-03T08:25:58.880Z,63.43
2017-09-03T08:28:34.039Z,61.67
2017-09-03T08:31:08.750Z,61.70
2017-09-03T08:33:44.341Z,61.57
2017-09-03T08:36:19.140Z,60.61
2017-09-03T08:38:53.554Z,59.76
2017-09-03T08:41:28.206Z,60.42
2017-09-03T08:44:04.064Z,58.98
2017-09-03T08:46:38.727Z,59.25
2017-09-03T08:49:13.460Z,57.94
2017-09-03T08:51:48.277Z,56.72
2017-09-03T08:54:23.512Z,56.50
2017-09-03T08:56:58.637Z,56.81
2017-09-03T08:59:33.186Z,56.85
2017-09-03T09:02:07.951Z,56.03
2017-09-03T09:04:42.676Z,55.64
2017-09-03T09:07:17.385Z,55.16
2017-09-03T09:09:51.999Z,55.72
2017-09-03T09:12:26.554Z,53.03
2017-09-03T09:15:01.497Z,53.76
2017-09-03T09:17:36.119Z,53.30
2017-09-03T09:20:10.489Z,54.35
2017-09-03T09:22:45.231Z,53.79
2017-09-03T09:25:19.886Z,54.48
2017-09-03T09:27:54.399Z,54.88
2017-09-03T09:30:28.926Z,55.27
2017-09-03T09:33:03.580Z,53.78
2017-09-03T09:35:38.356Z,52.96
2017-09-03T09:38:12.882Z,52.46
2017-09-03T09:40:48.452Z,51.80
2017-09-03T09:43:23.036Z,47.96
2017-09-03T09:45:58.131Z,48.74
2017-09-03T09:48:32.890Z,48.97
2017-09-03T09:51:07.633Z,48.82
2017-09-03T09:53:42.485Z,48.61
2017-09-03T09:56:26.639Z,48.79
2017-09-03T09:59:01.227Z,50.85
2017-09-03T10:01:35.852Z,51.09
2017-09-03T10:04:10.883Z,50.47
2017-09-03T10:06:46.184Z,50.36
2017-09-03T10:09:20.819Z,50.31
2017-09-03T10:11:55.415Z,49.97
2017-09-03T10:14:30.364Z,50.60
2017-09-03T10:17:05.123Z,51.04
2017-09-03T10:19:39.811Z,51.65
2017-09-03T10:22:14.585Z,51.91
2017-09-03T10:24:49.194Z,51.20
2017-09-03T10:27:24.144Z,50.97
2017-09-03T10:29:58.924Z,50.40
2017-09-03T10:32:33.752Z,49.86
2017-09-03T10:35:08.882Z,50.08
2017-09-03T10:37:43.711Z,50.11
2017-09-03T10:40:18.749Z,47.94
2017-09-03T10:42:53.374Z,45.32
2017-09-03T10:45:28.386Z,45.59
2017-09-03T10:48:03.080Z,43.68
2017-09-03T10:50:38.054Z,45.12
2017-09-03T10:53:12.924Z,44.36
2017-09-03T10:55:47.707Z,45.16
2017-09-03T10:58:22.507Z,44.45
2017-09-03T11:00:57.331Z,42.22
2017-09-03T11:03:32.463Z,41.82
2017-09-03T11:06:07.072Z,40.75
2017-09-03T11:08:41.943Z,40.61
2017-09-03T11:11:16.639Z,40.47
2017-09-03T11:13:51.384Z,40.88
2017-09-03T11:16:25.996Z,40.85
2017-09-03T11:19:00.732Z,38.56
2017-09-03T11:21:35.519Z,39.67
2017-09-03T11:24:10.138Z,39.65
2017-09-03T11:26:46.363Z,40.26
2017-09-03T11:29:21.854Z,38.51
2017-09-03T11:31:56.642Z,38.95
2017-09-03T11:34:31.355Z,40.40
2017-09-03T11:37:06.067Z,40.24
2017-09-03T11:39:40.868Z,42.88
2017-09-03T11:42:15.594Z,44.09
2017-09-03T11:44:50.823Z,42.11
2017-09-03T11:47:25.684Z,41.12
2017-09-03T11:50:00.479Z,40.84
2017-09-03T11:52:35.464Z,40.03
2017-09-03T11:55:11.039Z,41.26
2017-09-03T11:57:45.776Z,39.53
2017-09-03T12:00:20.924Z,40.91
2017-09-03T12:02:55.935Z,41.71
2017-09-03T12:05:31.374Z,42.17
2017-09-03T12:08:06.199Z,41.41
2017-09-03T12:10:40.879Z,42.81
2017-09-03T12:13:15.394Z,43.42
2017-09-03T12:15:50.199Z,43.65
2017-09-03T12:18:24.904Z,43.48
2017-09-03T12:20:59.429Z,42.78
2017-09-03T12:23:34.091Z,43.54
2017-09-03T12:26:08.637Z,43.85
2017-09-03T12:28:43.310Z,43.50
2017-09-03T12:31:18.039Z,44.29
2017-09-03T12:33:52.882Z,44.45
2017-09-03T12:36:27.725Z,44.46
2017-09-03T12:39:02.527Z,44.94
2017-09-03T12:41:37.374Z,45.92
2017-09-03T12:44:12.218Z,46.47
2017-09-03T12:46:47.082Z,46.53
2017-09-03T12:49:21.763Z,44.27
2017-09-03T12:51:56.507Z,44.30
2017-09-03T12:54:31.327Z,44.13
2017-09-03T12:57:06.047Z,44.80
2017-09-03T12:59:40.667Z,44.83
2017-09-03T13:02:15.288Z,44.59
2017-09-03T13:04:50.226Z,43.60
2017-09-03T13:07:25.070Z,42.47
2017-09-03T13:10:00.721Z,43.36
2017-09-03T13:12:35.554Z,42.27
2017-09-03T13:15:10.267Z,42.91
2017-09-03T13:17:45.727Z,42.39
2017-09-03T13:20:20.288Z,42.82
2017-09-03T13:22:55.159Z,42.72
2017-09-03T13:25:29.722Z,42.94
2017-09-03T13:28:04.440Z,43.31
2017-09-03T13:30:38.986Z,43.55
2017-09-03T13:33:13.808Z,43.47
2017-09-03T13:35:48.808Z,42.54
2017-09-03T13:38:23.968Z,43.08
2017-09-03T13:40:58.658Z,44.53
2017-09-03T13:43:33.420Z,45.05
2017-09-03T13:46:08.032Z,45.34
2017-09-03T13:48:42.804Z,44.63
2017-09-03T13:51:17.503Z,45.56
2017-09-03T13:53:52.346Z,45.42
2017-09-03T13:56:26.651Z,46.12
2017-09-03T13:59:01.591Z,45.12
2017-09-03T14:01:36.318Z,46.28
2017-09-03T14:04:10.956Z,47.18
2017-09-03T14:06:45.827Z,48.23
2017-09-03T14:09:20.603Z,50.44
2017-09-03T14:11:55.306Z,51.16
2017-09-03T14:14:30.092Z,50.98
2017-09-03T14:17:04.786Z,50.34
2017-09-03T14:19:40.478Z,49.26
2017-09-03T14:22:15.149Z,48.60
2017-09-03T14:24:50.800Z,49.66
2017-09-03T14:27:25.436Z,50.54
2017-09-03T14:30:00.188Z,49.53
2017-09-03T14:32:34.882Z,49.19
2017-09-03T14:35:09.897Z,46.81
2017-09-03T14:37:45.467Z,47.35
2017-09-03T14:40:20.124Z,48.17
2017-09-03T14:42:54.930Z,47.73
2017-09-03T14:45:29.679Z,47.30
2017-09-03T14:48:04.181Z,47.80
2017-09-03T14:50:38.935Z,47.77
2017-09-03T14:53:13.639Z,47.21
2017-09-03T14:55:48.296Z,46.18
2017-09-03T14:58:22.903Z,45.54
2017-09-03T15:00:57.875Z,45.21
2017-09-03T15:03:32.259Z,44.52
2017-09-03T15:06:06.971Z,46.64
2017-09-03T15:08:41.820Z,46.55
2017-09-03T15:11:16.755Z,46.32
2017-09-03T15:13:52.166Z,43.89
2017-09-03T15:16:27.015Z,44.70
2017-09-03T15:19:01.694Z,44.55
2017-09-03T15:21:36.459Z,41.34
2017-09-03T15:24:11.874Z,42.58
2017-09-03T15:26:47.806Z,39.30
2017-09-03T15:29:22.428Z,40.10
2017-09-03T15:31:57.046Z,40.03
2017-09-03T15:34:32.126Z,40.07
2017-09-03T15:37:06.343Z,39.25
2017-09-03T15:39:41.040Z,40.23
2017-09-03T15:42:15.787Z,40.12
2017-09-03T15:44:50.567Z,40.14
2017-09-03T15:47:25.271Z,40.38
2017-09-03T15:49:59.966Z,41.28
2017-09-03T15:52:34.607Z,41.09
2017-09-03T15:55:09.110Z,40.89
2017-09-03T15:57:43.959Z,39.68
2017-09-03T16:00:18.959Z,40.48
2017-09-03T16:02:54.720Z,40.11
2017-09-03T16:05:29.419Z,39.91
2017-09-03T16:08:04.184Z,40.40
2017-09-03T16:10:38.918Z,39.16
2017-09-03T16:13:13.638Z,40.10
2017-09-03T16:15:48.543Z,40.36
2017-09-03T16:18:23.219Z,41.43
2017-09-03T16:20:58.116Z,41.49
2017-09-03T16:23:33.040Z,41.33
2017-09-03T16:26:08.271Z,41.69
2017-09-03T16:28:43.423Z,42.17
2017-09-03T16:31:18.036Z,42.83
2017-09-03T16:33:52.688Z,42.52
2017-09-03T16:36:27.102Z,43.24
2017-09-03T16:39:01.920Z,42.93
2017-09-03T16:41:36.552Z,42.43
2017-09-03T16:44:11.272Z,42.41
2017-09-03T16:46:45.715Z,41.77
2017-09-03T16:49:20.243Z,41.75
2017-09-03T16:51:54.787Z,41.68
2017-09-03T16:54:29.390Z,42.15
2017-09-03T16:57:04.655Z,43.33
2017-09-03T16:59:39.600Z,43.63
2017-09-03T17:02:14.095Z,43.54
2017-09-03T17:04:48.938Z,44.16
2017-09-03T17:07:23.656Z,44.90
2017-09-03T17:09:58.312Z,45.11
2017-09-03T17:12:32.956Z,45.62
2017-09-03T17:15:07.450Z,46.08
2017-09-03T17:17:41.997Z,46.74
2017-09-03T17:20:17.424Z,47.22
2017-09-03T17:22:52.323Z,47.54
2017-09-03T17:25:27.079Z,47.92
2017-09-03T17:28:01.604Z,47.98
2017-09-03T17:30:36.247Z,47.77
2017-09-03T17:33:10.777Z,48.54
2017-09-03T17:35:45.595Z,49.02
2017-09-03T17:38:21.520Z,49.40
2017-09-03T17:40:56.826Z,50.15
2017-09-03T17:43:31.548Z,50.45
2017-09-03T17:46:06.936Z,50.35
2017-09-03T17:48:42.950Z,51.06
2017-09-03T17:51:17.709Z,51.53
2017-09-03T17:53:54.206Z,51.83
2017-09-03T17:56:28.912Z,51.80
2017-09-03T17:59:03.620Z,52.13
2017-09-03T18:01:38.478Z,52.45
2017-09-03T18:04:12.897Z,52.89
2017-09-03T18:06:47.524Z,53.14
2017-09-03T18:09:22.507Z,53.37
2017-09-03T18:11:57.718Z,53.56
2017-09-03T18:14:32.613Z,53.48
2017-09-03T18:17:07.124Z,53.48
2017-09-03T18:19:41.666Z,54.00
2017-09-03T18:22:16.314Z,54.20
2017-09-03T18:24:51.051Z,54.51
2017-09-03T18:27:25.775Z,54.93
2017-09-03T18:30:02.228Z,55.17
2017-09-03T18:32:37.111Z,55.57
2017-09-03T18:35:12.227Z,55.64
2017-09-03T18:37:52.035Z,55.56
2017-09-03T18:40:28.917Z,55.76
2017-09-03T18:43:04.120Z,55.99
2017-09-03T18:45:50.635Z,56.14
2017-09-03T18:48:25.678Z,56.31
2017-09-03T18:54:11.079Z,57.58
2017-09-03T18:56:45.423Z,58.73
2017-09-03T18:59:19.948Z,59.76
2017-09-03T19:01:55.487Z,60.90
2017-09-03T19:04:36.517Z,61.63
2017-09-03T19:07:10.812Z,62.59
2017-09-03T19:09:45.539Z,62.80
2017-09-03T19:12:21.078Z,62.88
2017-09-03T19:14:56.126Z,63.07
2017-09-03T19:17:30.852Z,63.26
2017-09-03T19:20:05.512Z,63.90
2017-09-03T19:22:40.035Z,64.27
2017-09-03T19:25:14.540Z,64.69
2017-09-03T19:27:49.303Z,65.34
2017-09-03T19:30:23.948Z,65.30
2017-09-03T19:32:58.586Z,65.30
2017-09-03T19:35:34.248Z,65.41
2017-09-03T19:38:15.362Z,65.99
2017-09-03T19:40:49.820Z,65.95
2017-09-03T19:43:24.416Z,65.82
2017-09-03T19:46:00.026Z,66.10
2017-09-03T19:48:34.642Z,66.14
2017-09-03T19:51:09.355Z,65.86
2017-09-03T19:53:44.182Z,66.28
2017-09-03T19:56:19.034Z,66.72
2017-09-03T19:58:54.255Z,67.13
2017-09-03T20:01:29.523Z,67.46
2017-09-03T20:04:04.131Z,67.60
2017-09-03T20:06:39.122Z,67.50
2017-09-03T20:09:13.771Z,67.98
2017-09-03T20:11:48.560Z,68.14
2017-09-03T20:14:23.742Z,68.19
2017-09-03T20:16:59.097Z,68.53
2017-09-03T20:19:33.938Z,68.65
2017-09-03T20:22:08.566Z,68.50
2017-09-03T20:24:44.314Z,68.36
2017-09-03T20:27:19.870Z,68.76
2017-09-03T20:29:54.603Z,68.81
2017-09-03T20:32:29.606Z,69.13
2017-09-03T20:35:04.966Z,69.35
2017-09-03T20:37:39.496Z,69.34
2017-09-03T20:40:14.436Z,69.25
2017-09-03T20:42:50.457Z,69.65
2017-09-03T20:45:25.230Z,69.97
2017-09-03T20:48:00.158Z,69.96
2017-09-03T20:50:35.098Z,70.46
2017-09-03T20:55:33.343Z,70.83
2017-09-03T20:58:08.097Z,71.17
2017-09-03T21:00:42.748Z,70.97
2017-09-03T21:03:16.911Z,71.03
2017-09-03T21:05:51.643Z,71.12
2017-09-03T21:08:26.237Z,71.23
2017-09-03T21:11:01.078Z,71.33
2017-09-03T21:13:35.773Z,71.46
2017-09-03T21:16:10.287Z,71.30
2017-09-03T21:18:45.027Z,71.44
2017-09-03T21:21:24.349Z,71.47
2017-09-03T21:23:59.272Z,71.54
2017-09-03T21:26:34.720Z,71.69
2017-09-03T21:29:09.658Z,71.53
2017-09-03T21:31:44.368Z,71.69
2017-09-03T21:34:19.283Z,71.92
2017-09-03T21:36:53.682Z,71.91
2017-09-03T21:39:28.319Z,72.22
2017-09-03T21:42:02.974Z,72.39
2017-09-03T21:44:37.508Z,72.33
2017-09-03T21:47:12.154Z,72.49
2017-09-03T21:49:46.840Z,72.77
2017-09-03T21:52:21.343Z,72.98
2017-09-03T21:54:56.180Z,72.78
2017-09-03T21:57:30.770Z,72.85
2017-09-03T22:00:07.591Z,72.82
2017-09-03T22:02:42.197Z,73.14
2017-09-03T22:05:16.784Z,73.17
2017-09-03T22:07:51.611Z,73.18
2017-09-03T22:10:26.394Z,73.31
2017-09-03T22:13:00.777Z,73.18
2017-09-03T22:15:35.780Z,73.51
2017-09-03T22:18:10.274Z,73.79
2017-09-03T22:20:44.959Z,73.87
2017-09-03T22:23:19.617Z,73.81
2017-09-03T22:25:54.235Z,73.89
2017-09-03T22:28:29.099Z,73.97
2017-09-03T22:31:03.502Z,73.85
2017-09-03T22:33:39.119Z,73.75
2017-09-03T22:36:14.123Z,73.61
2017-09-03T22:38:49.447Z,73.54
2017-09-03T22:41:24.059Z,73.44
2017-09-03T22:43:58.755Z,73.31
2017-09-03T22:46:33.315Z,73.29
2017-09-03T22:49:08.022Z,73.53
2017-09-03T22:51:43.026Z,73.72
2017-09-03T22:54:17.548Z,73.86
2017-09-03T22:56:52.551Z,73.86
2017-09-03T22:59:27.156Z,74.05
2017-09-03T23:02:01.851Z,73.75
2017-09-03T23:04:36.474Z,73.75
2017-09-03T23:07:11.109Z,74.31
2017-09-03T23:09:45.851Z,74.87
2017-09-03T23:12:20.423Z,75.34
2017-09-03T23:14:54.975Z,75.30
2017-09-03T23:17:29.730Z,75.14
2017-09-03T23:20:04.352Z,75.13
2017-09-03T23:22:39.112Z,75.31
2017-09-03T23:25:13.792Z,75.31
2017-09-03T23:27:48.536Z,75.25
2017-09-03T23:30:23.736Z,75.32
2017-09-03T23:32:59.200Z,75.42
2017-09-03T23:35:33.964Z,75.28
2017-09-03T23:38:08.460Z,75.30
2017-09-03T23:40:44.118Z,75.28
2017-09-03T23:43:18.747Z,75.38
2017-09-03T23:45:53.520Z,75.46
2017-09-03T23:48:28.015Z,75.39
2017-09-03T23:51:02.643Z,75.27
2017-09-03T23:53:37.250Z,75.26
2017-09-03T23:56:11.907Z,75.65
2017-09-03T23:58:46.502Z,76.01
